Melbourne, FL

10:32 PM EST on December 24, 2014 (GMT -0500)
Timber Ridge | Change Station
CLOSE
Current Station
Personal Weather Station
Location: West Melbourne, FL
Elevation: 33 ft
Nearby Weather Stations

Elev 33 ft 28.07 °N, 80.65 °W | Updated 11 minutes ago

Clear
Clear
74.5 °F
Feels Like 74 °F
N
1.0
Wind Variable Wind from South
Gusts 12.0 mph

Today
High -- | Low -- °F
--% Chance of Precip.
Yesterday
High -- | Low -- °F
Precip. -- in
7:11 AM 5:33 PM
Waxing Crescent, 13% visible
Pressure 29.91 in
Visibility 10.0 miles
Clouds Clear
Heat Index 74 °F
Dew Point 70 °F
Humidity 86%
Rainfall 0.16 in
Snow Depth Not available.
UV 0 out of 12
Pollen 4.40 out of 12
Air Quality Not available.
Flu Activity Not available.
METAR KMLB 250253Z 19010KT 10SM CLR 24/22 A2991 RMK AO2 SLP129 60000 T02440217 51007 $

More Conditions Fewer Conditions

Pressure 29.91 in
Visibility 10.0 miles
Clouds Clear
Heat Index 74 °F
Dew Point 70 °F
Humidity 86%
Rainfall 0.16 in
Snow Depth Not available.
UV 0 out of 12
Pollen 4.40 out of 12
Air Quality Not available.
Flu Activity Not available.
METAR KMLB 250253Z 19010KT 10SM CLR 24/22 A2991 RMK AO2 SLP129 60000 T02440217 51007 $

More Conditions Fewer Conditions

Nowcast | as of 9:35 PM EST on December 24, 2014

A line of showers and isolated lightning storms with brief heavy rain will continue to push east across the rest of central Florida overnight. Showers will move through the space coast in the hour around midnight to be into southern sections of the Treasure Coast around 3 am. A few of the showers will have gusty winds to 35 mph through midnight...but the weakening trend will continue with only scattered showers along the line overnight. Rainfall up to a third of an inch is possible through midnight. Additional details...including graphics are available online at: http://www.Srh.NOAA.Gov/mlb/blog.Php

×

10-Day Weather Forecast

Almanac

Astronomy

Dec. 24, 2014 Rise Set
Actual Time
Civil Twilight
Nautical Twilight
Astronomical Twilight
Moon
Length of Visible Light
Length of Day
Tomorrow will be .
, % of the Moon is Illuminated

Today's Extremes

State Highs State Lows

Community

WunderPhotos

Upload Photos

1,780,224 photos uploaded!

WunderBlogs® & News

Nearby

Air Quality

  Air Quality AQ Index Pollutant
Not available.

Snow Depth

Station Depth Elevation

Earthquake Activity

City Distance Mag. Time & Date
Minimum magnitude displayed is 2.5.

Coastal Water Temperatures

Place Temperature

Nearby Weather Stations